Kayenta, Arizona
Current Conditions -  °F | °C
As of 5:27 AM on Thursday 18 Dec 2014 (Local Time) from KPGA Reporting Station
Haze Haze  
Wind Chill: 37°   Ceiling: 9500
Heat Index: 37°   Visibility: 3mi
Dew Point: 33°   Wind: 0mph
Humidity: 86%   Direction: NA
Pressure: 30.1"   Gusts: NA
Location:  36.73°N, 110.26°W
Report Text: KPGA 181227Z AUTO 00000KT 3SM BR SCT006 OVC095 03/01 A3010 RMK AO2 T00280006 TSNO
Loading
Personal Weather Stations






























Interactive Weather Map New forecast layout! Learn more

10-Day Weather Forecast

Advertisements
Track Severe Weather on mobile